Startpagina
METAR-TAF:

METAR-TAF

Vliegvelden :

Soyo, Angola

breedte: 6-8-28S, lengte: 12-22-19E, hoogte: 5 m

METAR: ontbreekt

Tijdstip: 12:10 (11:10 UTC)

Verwachting

Dit bericht is 12 uur en het 10 minuten geleden gemaakt, om 23:00 UTC
Verwachting geldig van 25 om 00 UTC tot 25 om 12 UTC
Wind 7 kt uit het zuidzuidwesten
Zicht 10 km of meer
Weinig wolken op 2200 ft
Wijzigt naar
van 25 om 08 UTC tot 25 om 10 UTC
Zicht: 4000 m
nevel
Tijdelijke
van 25 om 10 UTC tot 25 om 12 UTC
Wind 6 kt uit het zuidzuidwesten
Verspreide wolken op 2200 ft

TAF: FNSO 242300Z 2500/2512 20007KT 9999 FEW022 BECMG 2508/2510 4000 BR TEMPO 2510/2512 20006KT SCT022

Waarnemingen en weersverwachtingen van meer dan 4000 vliegvelden (METAR en TAF).

De beschikbare stations zijn de gele en rode punten op de kaart.

Ga met uw muis naar het station om de naam te zien.

Klik dan om waarnemingen en weersverwachtingen te zien.

kaart wijzigen: klik op de groene knoppen met een zwart kruis om in te zoomen, op de groene knop met een streepje om uit te zoomen of op de groene pijlen voor aangrenzende kaarten.


METAR-TAF: